sensor_id;sensor_type;location;lat;lon;timestamp;P1;durP1;ratioP1;P2;durP2;ratioP2
33579;SDS011;19909;43.644;-79.438;2023-12-28T00:00:52;0.77;;;0.65;;
33579;SDS011;19909;43.644;-79.438;2023-12-28T00:03:19;1.00;;;0.80;;
33579;SDS011;19909;43.644;-79.438;2023-12-28T00:05:45;1.02;;;0.68;;
33579;SDS011;19909;43.644;-79.438;2023-12-28T00:08:12;1.42;;;0.68;;
33579;SDS011;19909;43.644;-79.438;2023-12-28T00:10:39;0.98;;;0.70;;
33579;SDS011;19909;43.644;-79.438;2023-12-28T00:13:05;2.80;;;0.88;;
33579;SDS011;19909;43.644;-79.438;2023-12-28T00:15:31;3.00;;;0.75;;
33579;SDS011;19909;43.644;-79.438;2023-12-28T00:17:58;1.42;;;0.50;;
33579;SDS011;19909;43.644;-79.438;2023-12-28T00:20:24;0.82;;;0.65;;
33579;SDS011;19909;43.644;-79.438;2023-12-28T00:22:51;1.08;;;0.50;;
33579;SDS011;19909;43.644;-79.438;2023-12-28T00:25:17;1.58;;;0.88;;
33579;SDS011;19909;43.644;-79.438;2023-12-28T00:27:44;1.08;;;0.80;;
33579;SDS011;19909;43.644;-79.438;2023-12-28T00:30:11;0.90;;;0.52;;
33579;SDS011;19909;43.644;-79.438;2023-12-28T00:32:38;1.23;;;0.70;;
33579;SDS011;19909;43.644;-79.438;2023-12-28T00:35:09;0.90;;;0.50;;
33579;SDS011;19909;43.644;-79.438;2023-12-28T00:37:36;0.80;;;0.50;;
33579;SDS011;19909;43.644;-79.438;2023-12-28T00:40:04;0.70;;;0.43;;
33579;SDS011;19909;43.644;-79.438;2023-12-28T00:42:30;1.60;;;0.52;;
33579;SDS011;19909;43.644;-79.438;2023-12-28T00:44:57;0.50;;;0.40;;
33579;SDS011;19909;43.644;-79.438;2023-12-28T00:47:24;0.55;;;0.40;;
33579;SDS011;19909;43.644;-79.438;2023-12-28T00:49:51;1.98;;;0.50;;
33579;SDS011;19909;43.644;-79.438;2023-12-28T00:52:19;0.88;;;0.55;;
33579;SDS011;19909;43.644;-79.438;2023-12-28T00:54:45;0.40;;;0.40;;
33579;SDS011;19909;43.644;-79.438;2023-12-28T00:57:11;0.93;;;0.47;;
33579;SDS011;19909;43.644;-79.438;2023-12-28T00:59:37;1.23;;;0.60;;
33579;SDS011;19909;43.644;-79.438;2023-12-28T01:02:03;1.25;;;0.50;;
33579;SDS011;19909;43.644;-79.438;2023-12-28T01:04:30;0.55;;;0.50;;
33579;SDS011;19909;43.644;-79.438;2023-12-28T01:06:56;1.10;;;0.50;;
33579;SDS011;19909;43.644;-79.438;2023-12-28T01:09:23;2.10;;;0.82;;
33579;SDS011;19909;43.644;-79.438;2023-12-28T01:11:49;0.60;;;0.40;;
33579;SDS011;19909;43.644;-79.438;2023-12-28T01:14:16;0.55;;;0.43;;
33579;SDS011;19909;43.644;-79.438;2023-12-28T01:16:42;0.95;;;0.50;;
33579;SDS011;19909;43.644;-79.438;2023-12-28T01:19:09;0.63;;;0.47;;
33579;SDS011;19909;43.644;-79.438;2023-12-28T01:21:36;1.33;;;0.50;;
33579;SDS011;19909;43.644;-79.438;2023-12-28T01:24:02;1.70;;;0.70;;
33579;SDS011;19909;43.644;-79.438;2023-12-28T01:26:28;0.35;;;0.32;;
33579;SDS011;19909;43.644;-79.438;2023-12-28T01:28:54;1.17;;;0.70;;
33579;SDS011;19909;43.644;-79.438;2023-12-28T01:31:22;0.47;;;0.30;;
33579;SDS011;19909;43.644;-79.438;2023-12-28T01:33:48;0.50;;;0.45;;
33579;SDS011;19909;43.644;-79.438;2023-12-28T01:36:23;0.40;;;0.30;;
33579;SDS011;19909;43.644;-79.438;2023-12-28T01:38:49;0.60;;;0.30;;
33579;SDS011;19909;43.644;-79.438;2023-12-28T01:41:15;0.57;;;0.45;;
33579;SDS011;19909;43.644;-79.438;2023-12-28T01:43:42;0.60;;;0.20;;
33579;SDS011;19909;43.644;-79.438;2023-12-28T01:46:09;1.17;;;0.60;;
33579;SDS011;19909;43.644;-79.438;2023-12-28T01:48:42;0.75;;;0.60;;
33579;SDS011;19909;43.644;-79.438;2023-12-28T01:51:12;0.73;;;0.55;;
33579;SDS011;19909;43.644;-79.438;2023-12-28T01:53:40;0.63;;;0.40;;
33579;SDS011;19909;43.644;-79.438;2023-12-28T01:56:10;10.52;;;1.20;;
33579;SDS011;19909;43.644;-79.438;2023-12-28T01:58:38;6.82;;;0.77;;
33579;SDS011;19909;43.644;-79.438;2023-12-28T02:01:07;6.40;;;0.90;;
33579;SDS011;19909;43.644;-79.438;2023-12-28T02:03:34;2.40;;;0.70;;
33579;SDS011;19909;43.644;-79.438;2023-12-28T02:06:00;1.25;;;0.55;;
33579;SDS011;19909;43.644;-79.438;2023-12-28T02:08:27;1.92;;;0.40;;
33579;SDS011;19909;43.644;-79.438;2023-12-28T02:10:53;4.30;;;0.85;;
33579;SDS011;19909;43.644;-79.438;2023-12-28T02:13:21;2.83;;;0.68;;
33579;SDS011;19909;43.644;-79.438;2023-12-28T02:15:49;1.60;;;0.70;;
33579;SDS011;19909;43.644;-79.438;2023-12-28T02:18:21;1.00;;;0.60;;
33579;SDS011;19909;43.644;-79.438;2023-12-28T02:20:50;1.95;;;0.68;;
33579;SDS011;19909;43.644;-79.438;2023-12-28T02:23:16;0.85;;;0.47;;
33579;SDS011;19909;43.644;-79.438;2023-12-28T02:25:43;2.75;;;0.60;;
33579;SDS011;19909;43.644;-79.438;2023-12-28T02:28:09;0.52;;;0.40;;
33579;SDS011;19909;43.644;-79.438;2023-12-28T02:30:35;0.77;;;0.30;;
33579;SDS011;19909;43.644;-79.438;2023-12-28T02:38:13;0.30;;;0.20;;
33579;SDS011;19909;43.644;-79.438;2023-12-28T02:40:42;0.88;;;0.57;;
33579;SDS011;19909;43.644;-79.438;2023-12-28T02:43:10;0.82;;;0.70;;
33579;SDS011;19909;43.644;-79.438;2023-12-28T02:45:37;0.70;;;0.50;;
33579;SDS011;19909;43.644;-79.438;2023-12-28T02:48:04;0.90;;;0.40;;
33579;SDS011;19909;43.644;-79.438;2023-12-28T02:50:31;0.63;;;0.40;;
33579;SDS011;19909;43.644;-79.438;2023-12-28T02:53:00;0.43;;;0.30;;
33579;SDS011;19909;43.644;-79.438;2023-12-28T02:55:28;0.93;;;0.30;;
33579;SDS011;19909;43.644;-79.438;2023-12-28T02:57:55;0.45;;;0.30;;
33579;SDS011;19909;43.644;-79.438;2023-12-28T03:00:25;0.50;;;0.45;;
33579;SDS011;19909;43.644;-79.438;2023-12-28T03:02:52;1.30;;;0.20;;
33579;SDS011;19909;43.644;-79.438;2023-12-28T03:05:19;0.40;;;0.30;;
33579;SDS011;19909;43.644;-79.438;2023-12-28T03:07:46;1.00;;;0.60;;
33579;SDS011;19909;43.644;-79.438;2023-12-28T03:10:13;0.93;;;0.50;;
33579;SDS011;19909;43.644;-79.438;2023-12-28T03:12:39;2.25;;;0.32;;
33579;SDS011;19909;43.644;-79.438;2023-12-28T03:15:06;0.60;;;0.40;;
33579;SDS011;19909;43.644;-79.438;2023-12-28T03:17:33;0.38;;;0.30;;
33579;SDS011;19909;43.644;-79.438;2023-12-28T03:19:59;0.57;;;0.30;;
33579;SDS011;19909;43.644;-79.438;2023-12-28T03:22:25;1.10;;;0.40;;
33579;SDS011;19909;43.644;-79.438;2023-12-28T03:24:52;1.17;;;0.20;;
33579;SDS011;19909;43.644;-79.438;2023-12-28T03:27:20;0.40;;;0.20;;
33579;SDS011;19909;43.644;-79.438;2023-12-28T03:29:46;0.47;;;0.30;;
33579;SDS011;19909;43.644;-79.438;2023-12-28T03:32:13;0.65;;;0.20;;
33579;SDS011;19909;43.644;-79.438;2023-12-28T03:34:40;0.40;;;0.30;;
33579;SDS011;19909;43.644;-79.438;2023-12-28T03:37:06;0.25;;;0.20;;
33579;SDS011;19909;43.644;-79.438;2023-12-28T03:39:34;1.55;;;0.30;;
33579;SDS011;19909;43.644;-79.438;2023-12-28T03:42:01;0.65;;;0.30;;
33579;SDS011;19909;43.644;-79.438;2023-12-28T03:44:27;0.55;;;0.30;;
33579;SDS011;19909;43.644;-79.438;2023-12-28T03:46:53;0.73;;;0.40;;
33579;SDS011;19909;43.644;-79.438;2023-12-28T03:49:19;1.33;;;0.30;;
33579;SDS011;19909;43.644;-79.438;2023-12-28T03:51:47;0.65;;;0.22;;
33579;SDS011;19909;43.644;-79.438;2023-12-28T03:54:16;0.47;;;0.40;;
33579;SDS011;19909;43.644;-79.438;2023-12-28T03:56:43;0.50;;;0.40;;
33579;SDS011;19909;43.644;-79.438;2023-12-28T03:59:09;0.85;;;0.45;;
33579;SDS011;19909;43.644;-79.438;2023-12-28T04:01:36;0.73;;;0.40;;
33579;SDS011;19909;43.644;-79.438;2023-12-28T04:04:03;0.82;;;0.47;;
33579;SDS011;19909;43.644;-79.438;2023-12-28T04:06:29;1.75;;;0.47;;
33579;SDS011;19909;43.644;-79.438;2023-12-28T04:08:55;0.98;;;0.50;;
33579;SDS011;19909;43.644;-79.438;2023-12-28T04:11:22;0.50;;;0.30;;
33579;SDS011;19909;43.644;-79.438;2023-12-28T04:13:49;1.25;;;0.47;;
33579;SDS011;19909;43.644;-79.438;2023-12-28T04:16:15;0.77;;;0.40;;
33579;SDS011;19909;43.644;-79.438;2023-12-28T04:18:42;0.98;;;0.30;;
33579;SDS011;19909;43.644;-79.438;2023-12-28T04:21:10;1.02;;;0.20;;
33579;SDS011;19909;43.644;-79.438;2023-12-28T04:23:37;0.28;;;0.10;;
33579;SDS011;19909;43.644;-79.438;2023-12-28T04:26:05;0.90;;;0.45;;
33579;SDS011;19909;43.644;-79.438;2023-12-28T04:28:31;0.60;;;0.43;;
33579;SDS011;19909;43.644;-79.438;2023-12-28T04:31:03;0.32;;;0.30;;
33579;SDS011;19909;43.644;-79.438;2023-12-28T04:33:31;0.47;;;0.30;;
33579;SDS011;19909;43.644;-79.438;2023-12-28T04:36:04;0.70;;;0.40;;
33579;SDS011;19909;43.644;-79.438;2023-12-28T04:38:31;0.45;;;0.35;;
33579;SDS011;19909;43.644;-79.438;2023-12-28T04:41:01;0.38;;;0.28;;
33579;SDS011;19909;43.644;-79.438;2023-12-28T04:43:28;0.63;;;0.43;;
33579;SDS011;19909;43.644;-79.438;2023-12-28T04:45:54;0.38;;;0.38;;
33579;SDS011;19909;43.644;-79.438;2023-12-28T04:48:20;0.80;;;0.40;;
33579;SDS011;19909;43.644;-79.438;2023-12-28T04:50:49;0.73;;;0.30;;
33579;SDS011;19909;43.644;-79.438;2023-12-28T04:53:17;0.40;;;0.35;;
33579;SDS011;19909;43.644;-79.438;2023-12-28T04:55:43;0.63;;;0.40;;
33579;SDS011;19909;43.644;-79.438;2023-12-28T04:58:10;0.47;;;0.30;;
33579;SDS011;19909;43.644;-79.438;2023-12-28T05:00:39;0.20;;;0.20;;
33579;SDS011;19909;43.644;-79.438;2023-12-28T05:03:07;0.43;;;0.38;;
33579;SDS011;19909;43.644;-79.438;2023-12-28T05:05:35;0.30;;;0.20;;
33579;SDS011;19909;43.644;-79.438;2023-12-28T05:08:01;0.20;;;0.10;;
33579;SDS011;19909;43.644;-79.438;2023-12-28T05:10:28;1.20;;;0.20;;
33579;SDS011;19909;43.644;-79.438;2023-12-28T05:12:54;0.35;;;0.20;;
33579;SDS011;19909;43.644;-79.438;2023-12-28T05:15:21;0.57;;;0.30;;
33579;SDS011;19909;43.644;-79.438;2023-12-28T05:17:48;0.10;;;0.10;;
33579;SDS011;19909;43.644;-79.438;2023-12-28T05:20:16;0.30;;;0.25;;
33579;SDS011;19909;43.644;-79.438;2023-12-28T05:22:43;0.93;;;0.40;;
33579;SDS011;19909;43.644;-79.438;2023-12-28T05:25:09;0.82;;;0.40;;
33579;SDS011;19909;43.644;-79.438;2023-12-28T05:27:35;0.47;;;0.40;;
33579;SDS011;19909;43.644;-79.438;2023-12-28T05:30:01;0.40;;;0.20;;
33579;SDS011;19909;43.644;-79.438;2023-12-28T05:32:27;0.40;;;0.30;;
33579;SDS011;19909;43.644;-79.438;2023-12-28T05:34:53;0.52;;;0.32;;
33579;SDS011;19909;43.644;-79.438;2023-12-28T05:37:21;0.80;;;0.55;;
33579;SDS011;19909;43.644;-79.438;2023-12-28T05:39:47;1.85;;;0.40;;
33579;SDS011;19909;43.644;-79.438;2023-12-28T05:42:13;0.45;;;0.40;;
33579;SDS011;19909;43.644;-79.438;2023-12-28T05:44:41;0.50;;;0.40;;
33579;SDS011;19909;43.644;-79.438;2023-12-28T05:47:08;0.60;;;0.50;;
33579;SDS011;19909;43.644;-79.438;2023-12-28T05:49:34;0.68;;;0.40;;
33579;SDS011;19909;43.644;-79.438;2023-12-28T05:52:03;0.47;;;0.40;;
33579;SDS011;19909;43.644;-79.438;2023-12-28T05:54:30;0.63;;;0.32;;
33579;SDS011;19909;43.644;-79.438;2023-12-28T05:56:56;1.13;;;0.30;;
33579;SDS011;19909;43.644;-79.438;2023-12-28T05:59:24;0.30;;;0.15;;
33579;SDS011;19909;43.644;-79.438;2023-12-28T06:01:51;0.77;;;0.47;;
33579;SDS011;19909;43.644;-79.438;2023-12-28T06:04:17;0.20;;;0.20;;
33579;SDS011;19909;43.644;-79.438;2023-12-28T06:06:43;0.75;;;0.40;;
33579;SDS011;19909;43.644;-79.438;2023-12-28T06:09:10;0.40;;;0.30;;
33579;SDS011;19909;43.644;-79.438;2023-12-28T06:11:37;0.95;;;0.50;;
33579;SDS011;19909;43.644;-79.438;2023-12-28T06:14:04;0.50;;;0.30;;
33579;SDS011;19909;43.644;-79.438;2023-12-28T06:16:30;0.75;;;0.35;;
33579;SDS011;19909;43.644;-79.438;2023-12-28T06:18:58;0.50;;;0.40;;
33579;SDS011;19909;43.644;-79.438;2023-12-28T06:21:25;0.75;;;0.45;;
33579;SDS011;19909;43.644;-79.438;2023-12-28T06:23:52;0.85;;;0.65;;
33579;SDS011;19909;43.644;-79.438;2023-12-28T06:26:18;1.17;;;0.47;;
33579;SDS011;19909;43.644;-79.438;2023-12-28T06:28:44;0.30;;;0.20;;
33579;SDS011;19909;43.644;-79.438;2023-12-28T06:31:10;0.77;;;0.40;;
33579;SDS011;19909;43.644;-79.438;2023-12-28T06:33:36;1.10;;;0.50;;
33579;SDS011;19909;43.644;-79.438;2023-12-28T06:36:07;1.00;;;0.52;;
33579;SDS011;19909;43.644;-79.438;2023-12-28T06:38:33;1.23;;;0.55;;
33579;SDS011;19909;43.644;-79.438;2023-12-28T06:41:00;0.75;;;0.43;;
33579;SDS011;19909;43.644;-79.438;2023-12-28T06:43:26;0.70;;;0.45;;
33579;SDS011;19909;43.644;-79.438;2023-12-28T06:45:53;0.65;;;0.50;;
33579;SDS011;19909;43.644;-79.438;2023-12-28T06:48:20;0.70;;;0.50;;
33579;SDS011;19909;43.644;-79.438;2023-12-28T06:50:46;0.45;;;0.30;;
33579;SDS011;19909;43.644;-79.438;2023-12-28T06:53:12;0.82;;;0.32;;
33579;SDS011;19909;43.644;-79.438;2023-12-28T06:55:39;0.50;;;0.38;;
33579;SDS011;19909;43.644;-79.438;2023-12-28T06:58:06;0.30;;;0.22;;
33579;SDS011;19909;43.644;-79.438;2023-12-28T07:00:33;0.40;;;0.20;;
33579;SDS011;19909;43.644;-79.438;2023-12-28T07:03:00;0.10;;;0.10;;
33579;SDS011;19909;43.644;-79.438;2023-12-28T07:05:26;0.50;;;0.30;;
33579;SDS011;19909;43.644;-79.438;2023-12-28T07:07:53;0.95;;;0.47;;
33579;SDS011;19909;43.644;-79.438;2023-12-28T07:10:19;0.52;;;0.40;;
33579;SDS011;19909;43.644;-79.438;2023-12-28T07:12:46;0.68;;;0.32;;
33579;SDS011;19909;43.644;-79.438;2023-12-28T07:15:12;0.50;;;0.20;;
33579;SDS011;19909;43.644;-79.438;2023-12-28T07:17:39;0.57;;;0.45;;
33579;SDS011;19909;43.644;-79.438;2023-12-28T07:20:06;0.60;;;0.30;;
33579;SDS011;19909;43.644;-79.438;2023-12-28T07:22:36;0.22;;;0.15;;
33579;SDS011;19909;43.644;-79.438;2023-12-28T07:25:03;0.60;;;0.38;;
33579;SDS011;19909;43.644;-79.438;2023-12-28T07:27:33;0.50;;;0.40;;
33579;SDS011;19909;43.644;-79.438;2023-12-28T07:30:00;0.60;;;0.40;;
33579;SDS011;19909;43.644;-79.438;2023-12-28T07:32:26;0.52;;;0.40;;
33579;SDS011;19909;43.644;-79.438;2023-12-28T07:34:54;0.60;;;0.38;;
33579;SDS011;19909;43.644;-79.438;2023-12-28T07:37:21;1.02;;;0.32;;
33579;SDS011;19909;43.644;-79.438;2023-12-28T07:39:48;0.63;;;0.38;;
33579;SDS011;19909;43.644;-79.438;2023-12-28T07:42:14;0.63;;;0.40;;
33579;SDS011;19909;43.644;-79.438;2023-12-28T07:44:41;0.20;;;0.20;;
33579;SDS011;19909;43.644;-79.438;2023-12-28T07:47:08;0.25;;;0.25;;
33579;SDS011;19909;43.644;-79.438;2023-12-28T07:49:34;0.40;;;0.20;;
33579;SDS011;19909;43.644;-79.438;2023-12-28T07:52:00;0.30;;;0.20;;
33579;SDS011;19909;43.644;-79.438;2023-12-28T07:54:27;0.43;;;0.20;;
33579;SDS011;19909;43.644;-79.438;2023-12-28T07:56:54;0.30;;;0.20;;
33579;SDS011;19909;43.644;-79.438;2023-12-28T07:59:20;0.40;;;0.10;;
33579;SDS011;19909;43.644;-79.438;2023-12-28T08:01:46;0.65;;;0.43;;
33579;SDS011;19909;43.644;-79.438;2023-12-28T08:04:13;0.30;;;0.15;;
33579;SDS011;19909;43.644;-79.438;2023-12-28T08:06:39;0.20;;;0.10;;
33579;SDS011;19909;43.644;-79.438;2023-12-28T08:09:05;1.15;;;0.20;;
33579;SDS011;19909;43.644;-79.438;2023-12-28T08:11:32;0.40;;;0.20;;
33579;SDS011;19909;43.644;-79.438;2023-12-28T08:13:59;0.65;;;0.20;;
33579;SDS011;19909;43.644;-79.438;2023-12-28T08:16:26;0.40;;;0.20;;
33579;SDS011;19909;43.644;-79.438;2023-12-28T08:18:53;0.50;;;0.22;;
33579;SDS011;19909;43.644;-79.438;2023-12-28T08:21:19;0.30;;;0.20;;
33579;SDS011;19909;43.644;-79.438;2023-12-28T08:23:45;0.30;;;0.20;;
33579;SDS011;19909;43.644;-79.438;2023-12-28T08:26:11;0.52;;;0.20;;
33579;SDS011;19909;43.644;-79.438;2023-12-28T08:28:39;0.13;;;0.10;;
33579;SDS011;19909;43.644;-79.438;2023-12-28T08:31:07;1.08;;;0.35;;
33579;SDS011;19909;43.644;-79.438;2023-12-28T08:33:34;0.20;;;0.10;;
33579;SDS011;19909;43.644;-79.438;2023-12-28T08:36:04;0.40;;;0.20;;
33579;SDS011;19909;43.644;-79.438;2023-12-28T08:38:31;0.35;;;0.20;;
33579;SDS011;19909;43.644;-79.438;2023-12-28T08:40:58;0.10;;;0.10;;
33579;SDS011;19909;43.644;-79.438;2023-12-28T08:43:24;0.10;;;0.08;;
33579;SDS011;19909;43.644;-79.438;2023-12-28T08:45:51;0.43;;;0.20;;
33579;SDS011;19909;43.644;-79.438;2023-12-28T08:48:19;0.20;;;0.10;;
33579;SDS011;19909;43.644;-79.438;2023-12-28T08:50:46;0.40;;;0.10;;
33579;SDS011;19909;43.644;-79.438;2023-12-28T08:53:13;0.10;;;0.10;;
33579;SDS011;19909;43.644;-79.438;2023-12-28T08:55:40;0.30;;;0.20;;
33579;SDS011;19909;43.644;-79.438;2023-12-28T08:58:07;0.35;;;0.10;;
33579;SDS011;19909;43.644;-79.438;2023-12-28T09:00:33;0.10;;;0.10;;
33579;SDS011;19909;43.644;-79.438;2023-12-28T09:02:59;0.32;;;0.13;;
33579;SDS011;19909;43.644;-79.438;2023-12-28T09:05:26;0.20;;;0.20;;
33579;SDS011;19909;43.644;-79.438;2023-12-28T09:07:52;0.28;;;0.10;;
33579;SDS011;19909;43.644;-79.438;2023-12-28T09:10:19;0.10;;;0.10;;
33579;SDS011;19909;43.644;-79.438;2023-12-28T09:12:45;0.20;;;0.10;;
33579;SDS011;19909;43.644;-79.438;2023-12-28T09:15:12;0.40;;;0.20;;
33579;SDS011;19909;43.644;-79.438;2023-12-28T09:17:40;0.15;;;0.10;;
33579;SDS011;19909;43.644;-79.438;2023-12-28T09:20:08;0.35;;;0.20;;
33579;SDS011;19909;43.644;-79.438;2023-12-28T09:22:37;0.30;;;0.10;;
33579;SDS011;19909;43.644;-79.438;2023-12-28T09:25:04;0.38;;;0.17;;
33579;SDS011;19909;43.644;-79.438;2023-12-28T09:27:30;0.70;;;0.20;;
33579;SDS011;19909;43.644;-79.438;2023-12-28T09:29:57;0.10;;;0.10;;
33579;SDS011;19909;43.644;-79.438;2023-12-28T09:32:24;0.30;;;0.10;;
33579;SDS011;19909;43.644;-79.438;2023-12-28T09:34:52;0.08;;;0.00;;
33579;SDS011;19909;43.644;-79.438;2023-12-28T09:37:19;0.10;;;0.05;;
33579;SDS011;19909;43.644;-79.438;2023-12-28T09:39:45;0.10;;;0.10;;
33579;SDS011;19909;43.644;-79.438;2023-12-28T09:42:33;0.10;;;0.10;;
33579;SDS011;19909;43.644;-79.438;2023-12-28T09:45:06;0.20;;;0.15;;
33579;SDS011;19909;43.644;-79.438;2023-12-28T09:47:33;0.47;;;0.17;;
33579;SDS011;19909;43.644;-79.438;2023-12-28T09:49:59;0.25;;;0.20;;
33579;SDS011;19909;43.644;-79.438;2023-12-28T09:52:25;0.10;;;0.10;;
33579;SDS011;19909;43.644;-79.438;2023-12-28T09:54:52;0.38;;;0.20;;
33579;SDS011;19909;43.644;-79.438;2023-12-28T09:57:18;0.20;;;0.10;;
33579;SDS011;19909;43.644;-79.438;2023-12-28T09:59:45;0.32;;;0.10;;
33579;SDS011;19909;43.644;-79.438;2023-12-28T10:02:12;0.75;;;0.10;;
33579;SDS011;19909;43.644;-79.438;2023-12-28T10:04:38;0.85;;;0.20;;
33579;SDS011;19909;43.644;-79.438;2023-12-28T10:07:04;0.30;;;0.10;;
33579;SDS011;19909;43.644;-79.438;2023-12-28T10:09:31;0.38;;;0.20;;
33579;SDS011;19909;43.644;-79.438;2023-12-28T10:11:58;1.00;;;0.30;;
33579;SDS011;19909;43.644;-79.438;2023-12-28T10:14:25;0.38;;;0.32;;
33579;SDS011;19909;43.644;-79.438;2023-12-28T10:16:51;0.68;;;0.30;;
33579;SDS011;19909;43.644;-79.438;2023-12-28T10:19:21;1.85;;;0.32;;
33579;SDS011;19909;43.644;-79.438;2023-12-28T10:21:50;0.38;;;0.22;;
33579;SDS011;19909;43.644;-79.438;2023-12-28T10:24:16;0.40;;;0.20;;
33579;SDS011;19909;43.644;-79.438;2023-12-28T10:26:43;0.30;;;0.20;;
33579;SDS011;19909;43.644;-79.438;2023-12-28T10:29:09;0.40;;;0.20;;
33579;SDS011;19909;43.644;-79.438;2023-12-28T10:31:35;0.17;;;0.17;;
33579;SDS011;19909;43.644;-79.438;2023-12-28T10:34:02;0.22;;;0.20;;
33579;SDS011;19909;43.644;-79.438;2023-12-28T10:36:28;0.22;;;0.20;;
33579;SDS011;19909;43.644;-79.438;2023-12-28T10:38:57;1.25;;;0.30;;
33579;SDS011;19909;43.644;-79.438;2023-12-28T10:41:26;0.30;;;0.30;;
33579;SDS011;19909;43.644;-79.438;2023-12-28T10:44:00;0.35;;;0.28;;
33579;SDS011;19909;43.644;-79.438;2023-12-28T10:46:30;0.55;;;0.30;;
33579;SDS011;19909;43.644;-79.438;2023-12-28T10:48:58;0.73;;;0.22;;
33579;SDS011;19909;43.644;-79.438;2023-12-28T10:51:25;0.60;;;0.40;;
33579;SDS011;19909;43.644;-79.438;2023-12-28T10:53:59;1.00;;;0.43;;
33579;SDS011;19909;43.644;-79.438;2023-12-28T10:56:36;0.55;;;0.50;;
33579;SDS011;19909;43.644;-79.438;2023-12-28T11:01:57;0.45;;;0.13;;
33579;SDS011;19909;43.644;-79.438;2023-12-28T11:04:41;0.30;;;0.20;;
33579;SDS011;19909;43.644;-79.438;2023-12-28T11:07:19;0.30;;;0.30;;
33579;SDS011;19909;43.644;-79.438;2023-12-28T11:09:47;0.95;;;0.20;;
33579;SDS011;19909;43.644;-79.438;2023-12-28T11:12:13;0.20;;;0.20;;
33579;SDS011;19909;43.644;-79.438;2023-12-28T11:14:45;0.30;;;0.20;;
33579;SDS011;19909;43.644;-79.438;2023-12-28T11:17:16;0.20;;;0.20;;
33579;SDS011;19909;43.644;-79.438;2023-12-28T11:19:44;0.60;;;0.30;;
33579;SDS011;19909;43.644;-79.438;2023-12-28T11:22:11;0.25;;;0.20;;
33579;SDS011;19909;43.644;-79.438;2023-12-28T11:24:40;0.40;;;0.20;;
33579;SDS011;19909;43.644;-79.438;2023-12-28T11:27:07;0.85;;;0.20;;
33579;SDS011;19909;43.644;-79.438;2023-12-28T11:29:34;0.50;;;0.10;;
33579;SDS011;19909;43.644;-79.438;2023-12-28T11:32:00;0.40;;;0.10;;
33579;SDS011;19909;43.644;-79.438;2023-12-28T11:34:31;0.28;;;0.20;;
33579;SDS011;19909;43.644;-79.438;2023-12-28T11:37:04;0.40;;;0.20;;
33579;SDS011;19909;43.644;-79.438;2023-12-28T11:39:35;0.40;;;0.30;;
33579;SDS011;19909;43.644;-79.438;2023-12-28T11:42:05;0.30;;;0.20;;
33579;SDS011;19909;43.644;-79.438;2023-12-28T11:44:43;0.50;;;0.20;;
33579;SDS011;19909;43.644;-79.438;2023-12-28T11:47:10;0.30;;;0.30;;
33579;SDS011;19909;43.644;-79.438;2023-12-28T11:49:41;0.30;;;0.20;;
33579;SDS011;19909;43.644;-79.438;2023-12-28T11:52:09;0.30;;;0.20;;
33579;SDS011;19909;43.644;-79.438;2023-12-28T11:54:38;0.20;;;0.10;;
33579;SDS011;19909;43.644;-79.438;2023-12-28T11:57:14;0.10;;;0.10;;
33579;SDS011;19909;43.644;-79.438;2023-12-28T11:59:42;0.22;;;0.10;;
33579;SDS011;19909;43.644;-79.438;2023-12-28T12:02:11;0.13;;;0.10;;
33579;SDS011;19909;43.644;-79.438;2023-12-28T12:04:39;0.10;;;0.05;;
33579;SDS011;19909;43.644;-79.438;2023-12-28T12:07:05;0.22;;;0.10;;
33579;SDS011;19909;43.644;-79.438;2023-12-28T12:09:31;0.20;;;0.20;;
33579;SDS011;19909;43.644;-79.438;2023-12-28T12:12:03;0.20;;;0.10;;
33579;SDS011;19909;43.644;-79.438;2023-12-28T12:14:30;0.20;;;0.10;;
33579;SDS011;19909;43.644;-79.438;2023-12-28T12:16:57;0.45;;;0.20;;
33579;SDS011;19909;43.644;-79.438;2023-12-28T12:19:25;0.63;;;0.17;;
33579;SDS011;19909;43.644;-79.438;2023-12-28T12:21:53;0.22;;;0.10;;
33579;SDS011;19909;43.644;-79.438;2023-12-28T12:24:21;0.20;;;0.10;;
33579;SDS011;19909;43.644;-79.438;2023-12-28T12:26:51;0.10;;;0.10;;
33579;SDS011;19909;43.644;-79.438;2023-12-28T12:29:19;0.00;;;0.00;;
33579;SDS011;19909;43.644;-79.438;2023-12-28T12:31:46;1.23;;;0.13;;
33579;SDS011;19909;43.644;-79.438;2023-12-28T12:34:17;0.17;;;0.10;;
33579;SDS011;19909;43.644;-79.438;2023-12-28T12:36:44;0.13;;;0.13;;
33579;SDS011;19909;43.644;-79.438;2023-12-28T12:39:11;0.20;;;0.20;;
33579;SDS011;19909;43.644;-79.438;2023-12-28T12:41:37;0.13;;;0.10;;
33579;SDS011;19909;43.644;-79.438;2023-12-28T12:44:04;0.15;;;0.10;;
33579;SDS011;19909;43.644;-79.438;2023-12-28T12:46:30;0.20;;;0.20;;
33579;SDS011;19909;43.644;-79.438;2023-12-28T12:48:57;0.32;;;0.28;;
33579;SDS011;19909;43.644;-79.438;2023-12-28T12:51:25;0.20;;;0.17;;
33579;SDS011;19909;43.644;-79.438;2023-12-28T12:53:58;0.47;;;0.30;;
33579;SDS011;19909;43.644;-79.438;2023-12-28T12:56:30;1.67;;;0.30;;
33579;SDS011;19909;43.644;-79.438;2023-12-28T12:58:57;0.45;;;0.30;;
33579;SDS011;19909;43.644;-79.438;2023-12-28T13:01:24;0.30;;;0.22;;
33579;SDS011;19909;43.644;-79.438;2023-12-28T13:03:50;0.65;;;0.52;;
33579;SDS011;19909;43.644;-79.438;2023-12-28T13:06:17;0.60;;;0.50;;
33579;SDS011;19909;43.644;-79.438;2023-12-28T13:08:48;0.50;;;0.50;;
33579;SDS011;19909;43.644;-79.438;2023-12-28T13:11:14;0.60;;;0.47;;
33579;SDS011;19909;43.644;-79.438;2023-12-28T13:13:41;0.90;;;0.57;;
33579;SDS011;19909;43.644;-79.438;2023-12-28T13:16:08;0.63;;;0.50;;
33579;SDS011;19909;43.644;-79.438;2023-12-28T13:18:35;0.60;;;0.50;;
33579;SDS011;19909;43.644;-79.438;2023-12-28T13:21:02;1.10;;;0.70;;
33579;SDS011;19909;43.644;-79.438;2023-12-28T13:23:28;3.47;;;1.05;;
33579;SDS011;19909;43.644;-79.438;2023-12-28T13:25:55;1.27;;;0.70;;
33579;SDS011;19909;43.644;-79.438;2023-12-28T13:28:22;2.35;;;0.90;;
33579;SDS011;19909;43.644;-79.438;2023-12-28T13:30:49;1.88;;;0.95;;
33579;SDS011;19909;43.644;-79.438;2023-12-28T13:33:17;1.45;;;1.02;;
33579;SDS011;19909;43.644;-79.438;2023-12-28T13:35:43;0.90;;;0.75;;
33579;SDS011;19909;43.644;-79.438;2023-12-28T13:38:09;12.68;;;1.52;;
33579;SDS011;19909;43.644;-79.438;2023-12-28T13:40:36;3.28;;;0.77;;
33579;SDS011;19909;43.644;-79.438;2023-12-28T13:43:02;5.90;;;0.77;;
33579;SDS011;19909;43.644;-79.438;2023-12-28T13:45:28;7.18;;;0.70;;
33579;SDS011;19909;43.644;-79.438;2023-12-28T13:47:55;3.13;;;0.55;;
33579;SDS011;19909;43.644;-79.438;2023-12-28T13:50:23;7.93;;;0.77;;
33579;SDS011;19909;43.644;-79.438;2023-12-28T13:52:49;4.63;;;0.82;;
33579;SDS011;19909;43.644;-79.438;2023-12-28T13:55:15;3.40;;;0.80;;
33579;SDS011;19909;43.644;-79.438;2023-12-28T13:57:42;3.55;;;0.70;;
33579;SDS011;19909;43.644;-79.438;2023-12-28T14:00:09;4.13;;;0.85;;
33579;SDS011;19909;43.644;-79.438;2023-12-28T14:02:36;1.77;;;0.75;;
33579;SDS011;19909;43.644;-79.438;2023-12-28T14:05:02;3.15;;;1.27;;
33579;SDS011;19909;43.644;-79.438;2023-12-28T14:07:29;2.55;;;0.70;;
33579;SDS011;19909;43.644;-79.438;2023-12-28T14:09:56;2.85;;;0.80;;
33579;SDS011;19909;43.644;-79.438;2023-12-28T14:12:22;1.67;;;0.88;;
33579;SDS011;19909;43.644;-79.438;2023-12-28T14:14:49;2.28;;;0.80;;
33579;SDS011;19909;43.644;-79.438;2023-12-28T14:17:15;2.45;;;0.80;;
33579;SDS011;19909;43.644;-79.438;2023-12-28T14:19:45;1.88;;;0.93;;
33579;SDS011;19909;43.644;-79.438;2023-12-28T14:22:12;2.75;;;0.82;;
33579;SDS011;19909;43.644;-79.438;2023-12-28T14:24:39;1.85;;;0.90;;
33579;SDS011;19909;43.644;-79.438;2023-12-28T14:27:05;0.82;;;0.60;;
33579;SDS011;19909;43.644;-79.438;2023-12-28T14:29:32;1.67;;;0.88;;